sensor_id;sensor_type;location;lat;lon;timestamp;P1;durP1;ratioP1;P2;durP2;ratioP2
23336;SDS011;11840;45.414;12.372;2022-08-21T06:51:25;3.95;;;1.77;;
23336;SDS011;11840;45.414;12.372;2022-08-21T06:53:51;4.50;;;1.95;;
23336;SDS011;11840;45.414;12.372;2022-08-21T06:56:18;2.97;;;1.80;;
23336;SDS011;11840;45.414;12.372;2022-08-21T06:58:44;3.53;;;1.90;;
23336;SDS011;11840;45.414;12.372;2022-08-21T07:01:09;3.25;;;1.98;;
23336;SDS011;11840;45.414;12.372;2022-08-21T07:03:36;3.97;;;1.80;;
23336;SDS011;11840;45.414;12.372;2022-08-21T07:06:03;4.45;;;2.13;;
23336;SDS011;11840;45.414;12.372;2022-08-21T07:08:30;2.83;;;1.70;;
23336;SDS011;11840;45.414;12.372;2022-08-21T07:10:58;5.03;;;2.30;;
23336;SDS011;11840;45.414;12.372;2022-08-21T07:13:24;4.47;;;1.80;;
23336;SDS011;11840;45.414;12.372;2022-08-21T07:15:49;5.07;;;2.10;;
23336;SDS011;11840;45.414;12.372;2022-08-21T07:18:16;3.92;;;1.90;;
23336;SDS011;11840;45.414;12.372;2022-08-21T07:20:42;5.75;;;1.85;;
23336;SDS011;11840;45.414;12.372;2022-08-21T07:23:09;3.45;;;2.00;;
23336;SDS011;11840;45.414;12.372;2022-08-21T07:25:36;3.22;;;1.67;;
23336;SDS011;11840;45.414;12.372;2022-08-21T07:28:02;4.90;;;2.10;;
23336;SDS011;11840;45.414;12.372;2022-08-21T07:30:29;3.70;;;2.20;;
23336;SDS011;11840;45.414;12.372;2022-08-21T07:32:55;4.45;;;2.30;;
23336;SDS011;11840;45.414;12.372;2022-08-21T07:35:22;4.82;;;2.33;;
23336;SDS011;11840;45.414;12.372;2022-08-21T07:37:48;6.03;;;2.80;;
23336;SDS011;11840;45.414;12.372;2022-08-21T07:40:15;3.40;;;2.22;;
23336;SDS011;11840;45.414;12.372;2022-08-21T07:42:43;6.13;;;2.80;;
23336;SDS011;11840;45.414;12.372;2022-08-21T07:45:09;5.07;;;2.95;;
23336;SDS011;11840;45.414;12.372;2022-08-21T07:47:36;7.88;;;2.78;;
23336;SDS011;11840;45.414;12.372;2022-08-21T07:50:02;6.65;;;2.88;;
23336;SDS011;11840;45.414;12.372;2022-08-21T07:52:29;9.85;;;2.70;;
23336;SDS011;11840;45.414;12.372;2022-08-21T07:54:55;5.18;;;3.10;;
23336;SDS011;11840;45.414;12.372;2022-08-21T07:57:22;8.02;;;3.00;;
23336;SDS011;11840;45.414;12.372;2022-08-21T07:59:48;9.32;;;2.75;;
23336;SDS011;11840;45.414;12.372;2022-08-21T08:02:28;4.85;;;2.83;;
23336;SDS011;11840;45.414;12.372;2022-08-21T08:04:58;6.75;;;3.00;;
23336;SDS011;11840;45.414;12.372;2022-08-21T08:07:24;5.10;;;3.05;;
23336;SDS011;11840;45.414;12.372;2022-08-21T08:09:50;7.63;;;2.45;;
23336;SDS011;11840;45.414;12.372;2022-08-21T08:12:16;4.45;;;2.55;;
23336;SDS011;11840;45.414;12.372;2022-08-21T08:14:42;7.80;;;2.25;;
23336;SDS011;11840;45.414;12.372;2022-08-21T08:17:08;3.97;;;2.35;;
23336;SDS011;11840;45.414;12.372;2022-08-21T08:19:34;5.10;;;2.90;;
23336;SDS011;11840;45.414;12.372;2022-08-21T08:22:00;4.65;;;2.33;;
23336;SDS011;11840;45.414;12.372;2022-08-21T08:24:27;5.57;;;2.20;;
23336;SDS011;11840;45.414;12.372;2022-08-21T08:26:52;4.05;;;2.22;;
23336;SDS011;11840;45.414;12.372;2022-08-21T08:29:19;5.57;;;2.20;;
23336;SDS011;11840;45.414;12.372;2022-08-21T08:31:46;5.30;;;2.47;;
23336;SDS011;11840;45.414;12.372;2022-08-21T08:34:13;5.07;;;2.13;;
23336;SDS011;11840;45.414;12.372;2022-08-21T08:36:39;3.38;;;2.30;;
23336;SDS011;11840;45.414;12.372;2022-08-21T08:39:05;4.55;;;2.25;;
23336;SDS011;11840;45.414;12.372;2022-08-21T08:41:31;6.28;;;2.30;;
23336;SDS011;11840;45.414;12.372;2022-08-21T08:43:59;8.65;;;2.75;;
23336;SDS011;11840;45.414;12.372;2022-08-21T08:46:32;5.88;;;2.40;;
23336;SDS011;11840;45.414;12.372;2022-08-21T08:51:44;5.10;;;2.35;;
23336;SDS011;11840;45.414;12.372;2022-08-21T08:54:28;6.25;;;3.00;;
23336;SDS011;11840;45.414;12.372;2022-08-21T08:56:58;4.78;;;2.53;;
23336;SDS011;11840;45.414;12.372;2022-08-21T08:59:41;6.50;;;2.50;;
23336;SDS011;11840;45.414;12.372;2022-08-21T09:02:08;4.78;;;2.40;;
23336;SDS011;11840;45.414;12.372;2022-08-21T09:04:35;6.47;;;2.70;;
23336;SDS011;11840;45.414;12.372;2022-08-21T09:07:06;6.28;;;2.80;;
23336;SDS011;11840;45.414;12.372;2022-08-21T09:09:51;6.97;;;2.92;;
23336;SDS011;11840;45.414;12.372;2022-08-21T09:15:09;4.35;;;2.50;;
23336;SDS011;11840;45.414;12.372;2022-08-21T09:22:51;6.18;;;2.50;;
23336;SDS011;11840;45.414;12.372;2022-08-21T09:27:47;3.50;;;1.92;;
23336;SDS011;11840;45.414;12.372;2022-08-21T18:23:30;1.48;;;0.73;;
23336;SDS011;11840;45.414;12.372;2022-08-21T18:25:56;2.05;;;0.88;;
23336;SDS011;11840;45.414;12.372;2022-08-21T18:28:23;3.22;;;1.20;;
23336;SDS011;11840;45.414;12.372;2022-08-21T18:30:49;3.13;;;1.10;;
23336;SDS011;11840;45.414;12.372;2022-08-21T18:33:16;2.47;;;1.10;;
23336;SDS011;11840;45.414;12.372;2022-08-21T18:35:43;2.70;;;0.93;;
23336;SDS011;11840;45.414;12.372;2022-08-21T18:38:09;2.63;;;0.98;;
23336;SDS011;11840;45.414;12.372;2022-08-21T18:40:36;2.58;;;1.20;;
23336;SDS011;11840;45.414;12.372;2022-08-21T18:43:02;3.78;;;3.03;;
23336;SDS011;11840;45.414;12.372;2022-08-21T18:45:30;5.32;;;2.50;;
23336;SDS011;11840;45.414;12.372;2022-08-21T18:47:56;3.58;;;1.80;;
23336;SDS011;11840;45.414;12.372;2022-08-21T18:50:25;3.90;;;1.90;;
23336;SDS011;11840;45.414;12.372;2022-08-21T18:52:51;2.30;;;1.35;;
23336;SDS011;11840;45.414;12.372;2022-08-21T18:55:17;3.85;;;1.30;;
23336;SDS011;11840;45.414;12.372;2022-08-21T18:57:43;2.30;;;1.27;;
23336;SDS011;11840;45.414;12.372;2022-08-21T19:00:12;4.95;;;1.30;;
23336;SDS011;11840;45.414;12.372;2022-08-21T19:02:39;2.10;;;1.27;;
23336;SDS011;11840;45.414;12.372;2022-08-21T19:05:06;2.83;;;1.30;;
23336;SDS011;11840;45.414;12.372;2022-08-21T19:07:33;4.10;;;1.23;;
23336;SDS011;11840;45.414;12.372;2022-08-21T19:10:00;4.07;;;1.30;;
23336;SDS011;11840;45.414;12.372;2022-08-21T19:12:26;1.83;;;1.08;;
23336;SDS011;11840;45.414;12.372;2022-08-21T19:14:52;7.22;;;1.20;;
23336;SDS011;11840;45.414;12.372;2022-08-21T19:17:19;2.80;;;0.85;;
23336;SDS011;11840;45.414;12.372;2022-08-21T19:19:46;3.55;;;0.90;;
23336;SDS011;11840;45.414;12.372;2022-08-21T19:22:12;0.95;;;0.75;;
23336;SDS011;11840;45.414;12.372;2022-08-21T19:24:39;1.85;;;1.00;;
23336;SDS011;11840;45.414;12.372;2022-08-21T19:27:05;1.73;;;1.02;;
23336;SDS011;11840;45.414;12.372;2022-08-21T19:29:30;1.42;;;0.90;;
23336;SDS011;11840;45.414;12.372;2022-08-21T19:31:56;4.97;;;1.13;;
23336;SDS011;11840;45.414;12.372;2022-08-21T19:34:24;1.52;;;1.00;;
23336;SDS011;11840;45.414;12.372;2022-08-21T19:36:51;3.17;;;1.33;;
23336;SDS011;11840;45.414;12.372;2022-08-21T19:39:17;2.00;;;0.90;;
23336;SDS011;11840;45.414;12.372;2022-08-21T19:41:45;3.70;;;1.40;;
23336;SDS011;11840;45.414;12.372;2022-08-21T19:44:16;2.17;;;1.10;;
23336;SDS011;11840;45.414;12.372;2022-08-21T19:46:45;1.20;;;1.00;;
23336;SDS011;11840;45.414;12.372;2022-08-21T19:49:12;2.50;;;1.00;;
23336;SDS011;11840;45.414;12.372;2022-08-21T19:51:38;3.58;;;0.77;;
23336;SDS011;11840;45.414;12.372;2022-08-21T19:54:05;1.80;;;0.90;;
23336;SDS011;11840;45.414;12.372;2022-08-21T19:56:32;3.45;;;1.00;;
